Accueil
METAR-TAF:

METAR-TAF

Aéroports :

Base aérienne de Chièvres

Chièvres, Belgique

latitude: 50-34N, longitude: 003-50E, altitude: 60 m

Observation

Le bulletin a été fait il y a 35 minutes, à 02:25 UTC
Vent 3 kt de nord/nord-est
Température 3°C
Humidité 87%
Pression 1026 hPa
Visibilité 10 km ou plus

METAR: EBCV 170225Z AUTO 02003KT 9999 NCD 03/01 Q1026 BLU

Heure: 05:00 (03:00 UTC)

Prévision

Le bulletin a été fait il y a 11 heures et 19 minutes, à 15:41 UTC
Prévision valable du 16 à 19 UTC au 17 à 07 UTC
Vent 7 kt de nord/nord-est
Visibilité 10 km ou plus
Quelques nuages à une hauteur de 5000 ft

TAF: EBCV 161541Z 1619/1707 03007KT 9999 FEW050 BY EBWM

Observations et prévisions météorologiques de plus de 4000 aéroports (messages METAR et TAF).

Les stations disponibles sont représentées par des disques jaunes et rouges sur la carte.

Passer la souris dessus pour voir le nom de la station.

Cliquer dessus pour voir les observations et prévisions météorologiques.

Pour changer de carte: cliquez sur les boutons verts avec une croix noire pour zoomer, sur le bouton vert avec un tiret pour effectuer un zoom arrière, ou sur les flèches vertes pour les cartes adjacentes.


METAR-TAF: